createdAt,value
2018-02-04T00:00:23.379Z,86.01
2018-02-04T00:01:04.034Z,86.2
2018-02-04T00:01:44.585Z,86.43
2018-02-04T00:02:25.100Z,86.01
2018-02-04T00:03:05.701Z,86.3
2018-02-04T00:03:46.203Z,86.49
2018-02-04T00:04:26.737Z,86.96
2018-02-04T00:05:07.304Z,86.58
2018-02-04T00:05:47.792Z,86.58
2018-02-04T00:06:28.311Z,86.87
2018-02-04T00:07:08.842Z,86.68
2018-02-04T00:07:49.359Z,86.68
2018-02-04T00:08:29.996Z,86.87
2018-02-04T00:09:10.520Z,87.01
2018-02-04T00:09:51.036Z,86.91
2018-02-04T00:10:31.594Z,86.91
2018-02-04T00:11:12.102Z,85.96
2018-02-04T00:11:52.655Z,85.58
2018-02-04T00:12:33.148Z,85.68
2018-02-04T00:13:13.724Z,85.86
2018-02-04T00:13:54.909Z,85.86
2018-02-04T00:14:34.788Z,85.68
2018-02-04T00:15:15.364Z,86.24
2018-02-04T00:15:55.895Z,86.82
2018-02-04T00:16:36.412Z,86.63
2018-02-04T00:17:16.959Z,86.53
2018-02-04T00:17:57.508Z,86.53
2018-02-04T00:18:38.009Z,85.96
2018-02-04T00:19:19.366Z,85.68
2018-02-04T00:19:59.930Z,86.24
2018-02-04T00:20:40.473Z,86.34
2018-02-04T00:21:20.976Z,85.77
2018-02-04T00:22:01.572Z,86.15
2018-02-04T00:22:42.090Z,85.49
2018-02-04T00:23:22.659Z,86.15
2018-02-04T00:24:03.204Z,84.91
2018-02-04T00:24:43.739Z,85.53
2018-02-04T00:25:24.390Z,86.15
2018-02-04T00:26:04.868Z,86.24
2018-02-04T00:26:45.395Z,86.01
2018-02-04T00:27:25.943Z,86.05
2018-02-04T00:28:06.512Z,86.82
2018-02-04T00:28:47.107Z,86.34
2018-02-04T00:29:27.608Z,85.96
2018-02-04T00:30:08.246Z,85.96
2018-02-04T00:30:48.761Z,86.15
2018-02-04T00:31:29.309Z,85.96
2018-02-04T00:32:09.881Z,86.15
2018-02-04T00:32:50.349Z,85.96
2018-02-04T00:33:30.927Z,85.68
2018-02-04T00:34:11.436Z,85.44
2018-02-04T00:34:52.014Z,86.24
2018-02-04T00:35:32.559Z,86.01
2018-02-04T00:36:13.073Z,86.39
2018-02-04T00:36:53.589Z,86.87
2018-02-04T00:37:34.195Z,86.77
2018-02-04T00:38:14.702Z,86.87
2018-02-04T00:38:55.185Z,86.96
2018-02-04T00:39:35.941Z,87.24
2018-02-04T00:40:16.460Z,86.96
2018-02-04T00:40:56.938Z,86.91
2018-02-04T00:41:37.451Z,87.01
2018-02-04T00:42:17.986Z,86.82
2018-02-04T00:42:58.559Z,86.11
2018-02-04T00:43:39.131Z,86.87
2018-02-04T00:44:19.695Z,87.05
2018-02-04T00:45:00.220Z,87.15
2018-02-04T00:45:40.912Z,88.1
2018-02-04T00:46:21.467Z,88.1
2018-02-04T00:47:02.015Z,88.2
2018-02-04T00:47:42.614Z,88.1
2018-02-04T00:48:23.173Z,87.57
2018-02-04T00:49:03.681Z,87.29
2018-02-04T00:49:44.222Z,87.01
2018-02-04T00:50:24.803Z,86.43
2018-02-04T00:51:05.396Z,85.96
2018-02-04T00:51:45.881Z,86.24
2018-02-04T00:52:26.474Z,86.24
2018-02-04T00:53:07.024Z,86.34
2018-02-04T00:53:47.543Z,86.63
2018-02-04T00:54:28.116Z,86.11
2018-02-04T00:55:08.634Z,86.77
2018-02-04T00:55:49.233Z,87.05
2018-02-04T00:56:29.831Z,87.15
2018-02-04T00:57:10.327Z,87.15
2018-02-04T00:57:50.863Z,87.15
2018-02-04T00:58:31.391Z,88.01
2018-02-04T00:59:11.939Z,88.57
2018-02-04T00:59:52.516Z,88.2
2018-02-04T01:00:33.044Z,88.01
2018-02-04T01:01:13.594Z,88.1
2018-02-04T01:01:54.100Z,88.29
2018-02-04T01:02:34.614Z,87.82
2018-02-04T01:03:15.152Z,87.91
2018-02-04T01:03:55.739Z,88.57
2018-02-04T01:04:36.338Z,88.48
2018-02-04T01:05:16.876Z,88.91
2018-02-04T01:05:57.349Z,88.86
2018-02-04T01:06:37.911Z,88.57
2018-02-04T01:07:18.471Z,88.91
2018-02-04T01:07:59.031Z,88.91
2018-02-04T01:08:39.526Z,88.72
2018-02-04T01:09:20.020Z,89.48
2018-02-04T01:10:00.562Z,89.86
2018-02-04T01:10:41.160Z,89.86
2018-02-04T01:11:21.668Z,89.9
2018-02-04T01:12:02.224Z,89.72
2018-02-04T01:12:42.779Z,89.9
2018-02-04T01:13:23.319Z,89.53
2018-02-04T01:14:03.817Z,88.95
2018-02-04T01:14:44.419Z,88.67
2018-02-04T01:15:24.983Z,88.67
2018-02-04T01:16:05.515Z,88.05
2018-02-04T01:16:46.032Z,88.29
2018-02-04T01:17:26.584Z,87.67
2018-02-04T01:18:07.182Z,86.82
2018-02-04T01:18:47.663Z,87.29
2018-02-04T01:19:28.223Z,86.91
2018-02-04T01:20:08.782Z,86.91
2018-02-04T01:20:49.322Z,87.1
2018-02-04T01:21:29.863Z,86.91
2018-02-04T01:22:10.390Z,86.82
2018-02-04T01:22:50.901Z,86.43
2018-02-04T01:23:31.465Z,86.63
2018-02-04T01:24:12.035Z,86.63
2018-02-04T01:24:52.544Z,86.63
2018-02-04T01:25:33.088Z,85.96
2018-02-04T01:26:13.606Z,86.15
2018-02-04T01:26:54.155Z,86.15
2018-02-04T01:27:34.666Z,85.86
2018-02-04T01:28:15.214Z,86.05
2018-02-04T01:28:55.769Z,86.34
2018-02-04T01:29:36.396Z,86.15
2018-02-04T01:30:16.879Z,85.86
2018-02-04T01:30:57.444Z,85.68
2018-02-04T01:31:38.024Z,86.15
2018-02-04T01:32:18.516Z,86.24
2018-02-04T01:32:59.066Z,85.77
2018-02-04T01:33:39.615Z,85.77
2018-02-04T01:34:20.164Z,86.53
2018-02-04T01:35:00.780Z,86.15
2018-02-04T01:35:41.273Z,86.05
2018-02-04T01:36:21.775Z,86.43
2018-02-04T01:37:02.288Z,86.15
2018-02-04T01:37:42.851Z,86.24
2018-02-04T01:38:23.445Z,86.34
2018-02-04T01:39:03.965Z,86.34
2018-02-04T01:39:44.491Z,86.34
2018-02-04T01:40:25.093Z,86.53
2018-02-04T01:41:05.618Z,86.15
2018-02-04T01:41:46.158Z,85.86
2018-02-04T01:42:27.426Z,85.68
2018-02-04T01:43:07.203Z,85.68
2018-02-04T01:43:47.759Z,85.86
2018-02-04T01:44:28.362Z,85.58
2018-02-04T01:45:08.887Z,85.49
2018-02-04T01:45:49.452Z,85.49
2018-02-04T01:46:29.936Z,85.49
2018-02-04T01:47:10.482Z,85.49
2018-02-04T01:47:51.045Z,85.39
2018-02-04T01:48:31.636Z,85.77
2018-02-04T01:49:12.167Z,86.05
2018-02-04T01:49:52.698Z,86.15
2018-02-04T01:50:33.223Z,86.15
2018-02-04T01:51:13.822Z,86.15
2018-02-04T01:51:54.371Z,85.68
2018-02-04T01:52:34.857Z,86.15
2018-02-04T01:53:15.468Z,85.43
2018-02-04T01:53:56.000Z,85.43
2018-02-04T01:54:36.574Z,85.01
2018-02-04T01:55:17.129Z,85.39
2018-02-04T01:55:57.649Z,85.58
2018-02-04T01:56:38.154Z,85.11
2018-02-04T01:57:18.697Z,85.49
2018-02-04T01:58:00.122Z,85.3
2018-02-04T01:58:40.689Z,85.53
2018-02-04T01:59:21.226Z,85.53
2018-02-04T02:00:01.756Z,85.43
2018-02-04T02:00:42.317Z,85.3
2018-02-04T02:01:22.881Z,85.43
2018-02-04T02:02:03.392Z,85.39
2018-02-04T02:02:43.965Z,85.43
2018-02-04T02:03:24.546Z,85.39
2018-02-04T02:04:05.072Z,85.62
2018-02-04T02:04:45.577Z,85.24
2018-02-04T02:05:26.118Z,85.15
2018-02-04T02:06:06.751Z,85.15
2018-02-04T02:06:47.296Z,85.05
2018-02-04T02:07:27.832Z,85.34
2018-02-04T02:08:08.349Z,85.24
2018-02-04T02:08:48.833Z,85.43
2018-02-04T02:09:29.389Z,85.43
2018-02-04T02:10:09.898Z,85.72
2018-02-04T02:10:50.457Z,85.3
2018-02-04T02:11:31.097Z,85.62
2018-02-04T02:12:11.660Z,85.43
2018-02-04T02:12:52.154Z,85.43
2018-02-04T02:13:32.653Z,85.53
2018-02-04T02:14:13.220Z,85.24
2018-02-04T02:14:53.756Z,85.43
2018-02-04T02:15:34.303Z,85.53
2018-02-04T02:16:14.835Z,85.05
2018-02-04T02:16:55.393Z,85.15
2018-02-04T02:17:35.910Z,84.95
2018-02-04T02:18:16.425Z,84.95
2018-02-04T02:18:57.008Z,85.05
2018-02-04T02:19:37.543Z,84.95
2018-02-04T02:20:18.097Z,85.24
2018-02-04T02:20:58.646Z,84.95
2018-02-04T02:21:39.216Z,84.95
2018-02-04T02:22:19.721Z,85.15
2018-02-04T02:23:00.271Z,84.95
2018-02-04T02:23:40.839Z,84.95
2018-02-04T02:24:21.362Z,85.05
2018-02-04T02:25:01.878Z,84.95
2018-02-04T02:25:42.384Z,84.77
2018-02-04T02:26:22.958Z,84.86
2018-02-04T02:27:03.509Z,85.24
2018-02-04T02:27:44.066Z,85.34
2018-02-04T02:28:24.612Z,84.95
2018-02-04T02:29:05.232Z,84.95
2018-02-04T02:29:45.785Z,84.67
2018-02-04T02:30:26.259Z,85.15
2018-02-04T02:31:06.837Z,84.95
2018-02-04T02:31:47.337Z,84.95
2018-02-04T02:32:27.853Z,85.34
2018-02-04T02:33:08.433Z,84.48
2018-02-04T02:33:48.951Z,84.86
2018-02-04T02:34:29.487Z,84.48
2018-02-04T02:35:10.032Z,84.29
2018-02-04T02:35:50.579Z,84.39
2018-02-04T02:36:31.125Z,84.58
2018-02-04T02:37:11.654Z,85.34
2018-02-04T02:37:52.194Z,85.05
2018-02-04T02:38:32.725Z,85.24
2018-02-04T02:39:13.274Z,84.48
2018-02-04T02:39:53.784Z,84.48
2018-02-04T02:40:34.320Z,84.29
2018-02-04T02:41:14.893Z,84.29
2018-02-04T02:41:55.358Z,84.2
2018-02-04T02:42:35.862Z,84.29
2018-02-04T02:43:16.466Z,84.95
2018-02-04T02:43:56.958Z,84.48
2018-02-04T02:44:37.487Z,84.2
2018-02-04T02:45:18.031Z,84.95
2018-02-04T02:45:58.585Z,84.25
2018-02-04T02:46:39.121Z,84.29
2018-02-04T02:47:19.734Z,84.25
2018-02-04T02:48:00.289Z,84.16
2018-02-04T02:48:40.776Z,84.72
2018-02-04T02:49:21.313Z,85.15
2018-02-04T02:50:01.917Z,85.34
2018-02-04T02:50:42.406Z,85.3
2018-02-04T02:51:22.961Z,85.05
2018-02-04T02:52:03.448Z,85.15
2018-02-04T02:52:43.963Z,84.77
2018-02-04T02:53:24.526Z,85.05
2018-02-04T02:54:05.080Z,85.34
2018-02-04T02:54:45.646Z,85.43
2018-02-04T02:55:26.152Z,85.72
2018-02-04T02:56:06.791Z,85.24
2018-02-04T02:56:47.286Z,84.95
2018-02-04T02:57:27.876Z,85.05
2018-02-04T02:58:08.361Z,84.77
2018-02-04T02:58:48.946Z,84.39
2018-02-04T02:59:29.428Z,84.48
2018-02-04T03:00:09.959Z,84.48
2018-02-04T03:00:50.508Z,85.15
2018-02-04T03:01:31.057Z,85.15
2018-02-04T03:02:11.591Z,84.95
2018-02-04T03:02:52.198Z,84.95
2018-02-04T03:03:32.690Z,84.95
2018-02-04T03:04:13.234Z,85.15
2018-02-04T03:04:53.782Z,84.77
2018-02-04T03:05:34.300Z,85.15
2018-02-04T03:06:14.801Z,84.95
2018-02-04T03:06:55.333Z,85.53
2018-02-04T03:07:35.895Z,85.15
2018-02-04T03:08:16.431Z,85.53
2018-02-04T03:08:56.989Z,85.15
2018-02-04T03:09:37.650Z,85.15
2018-02-04T03:10:18.110Z,85.05
2018-02-04T03:10:58.653Z,84.58
2018-02-04T03:11:39.222Z,84.77
2018-02-04T03:12:19.766Z,84.67
2018-02-04T03:13:00.294Z,84.67
2018-02-04T03:13:40.861Z,84.86
2018-02-04T03:14:21.441Z,84.29
2018-02-04T03:15:02.018Z,84.29
2018-02-04T03:15:42.507Z,84.58
2018-02-04T03:16:23.095Z,84.39
2018-02-04T03:17:03.604Z,84.2
2018-02-04T03:17:44.154Z,84.2
2018-02-04T03:18:24.754Z,84.48
2018-02-04T03:19:05.379Z,84.48
2018-02-04T03:19:45.894Z,84.29
2018-02-04T03:20:26.384Z,84.67
2018-02-04T03:21:06.884Z,84.39
2018-02-04T03:21:47.438Z,84.29
2018-02-04T03:22:28.064Z,84.39
2018-02-04T03:23:08.659Z,84.58
2018-02-04T03:23:49.186Z,84.29
2018-02-04T03:24:29.749Z,84.58
2018-02-04T03:25:10.277Z,84.01
2018-02-04T03:25:50.809Z,84.01
2018-02-04T03:26:31.318Z,84.01
2018-02-04T03:27:11.830Z,84.01
2018-02-04T03:27:52.446Z,84.01
2018-02-04T03:28:32.934Z,84.01
2018-02-04T03:29:13.493Z,83.72
2018-02-04T03:29:54.016Z,83.91
2018-02-04T03:30:34.582Z,83.72
2018-02-04T03:31:15.103Z,83.82
2018-02-04T03:31:55.658Z,83.91
2018-02-04T03:32:36.194Z,83.91
2018-02-04T03:33:16.728Z,84.48
2018-02-04T03:33:57.258Z,83.91
2018-02-04T03:34:37.852Z,83.82
2018-02-04T03:35:18.407Z,83.44
2018-02-04T03:35:58.927Z,84.1
2018-02-04T03:36:39.434Z,83.44
2018-02-04T03:37:19.958Z,83.82
2018-02-04T03:38:00.514Z,83.44
2018-02-04T03:38:41.009Z,84.2
2018-02-04T03:39:21.576Z,83.82
2018-02-04T03:40:02.110Z,83.91
2018-02-04T03:40:42.642Z,83.82
2018-02-04T03:41:23.151Z,84.01
2018-02-04T03:42:03.823Z,84.2
2018-02-04T03:42:44.457Z,84.48
2018-02-04T03:43:24.916Z,84.67
2018-02-04T03:44:05.449Z,84.48
2018-02-04T03:44:45.961Z,84.39
2018-02-04T03:45:26.532Z,84.67
2018-02-04T03:46:07.053Z,84.58
2018-02-04T03:46:47.604Z,84.67
2018-02-04T03:47:28.173Z,84.39
2018-02-04T03:48:08.742Z,84.2
2018-02-04T03:48:49.317Z,84.39
2018-02-04T03:49:29.894Z,84.48
2018-02-04T03:50:10.455Z,84.48
2018-02-04T03:50:50.982Z,85.15
2018-02-04T03:51:31.527Z,84.58
2018-02-04T03:52:12.057Z,84.86
2018-02-04T03:52:52.594Z,84.29
2018-02-04T03:53:33.139Z,85.34
2018-02-04T03:54:13.720Z,84.95
2018-02-04T03:54:54.280Z,84.95
2018-02-04T03:55:34.789Z,85.34
2018-02-04T03:56:15.302Z,84.58
2018-02-04T03:56:55.847Z,85.15
2018-02-04T03:57:36.414Z,85.34
2018-02-04T03:58:16.956Z,84.77
2018-02-04T03:58:57.464Z,85.34
2018-02-04T03:59:37.992Z,85.05
2018-02-04T04:00:18.558Z,84.48
2018-02-04T04:00:59.096Z,84.29
2018-02-04T04:01:39.694Z,84.39
2018-02-04T04:02:20.210Z,84.58
2018-02-04T04:03:00.737Z,84.48
2018-02-04T04:03:41.289Z,84.67
2018-02-04T04:04:21.910Z,84.67
2018-02-04T04:05:02.410Z,84.39
2018-02-04T04:05:42.942Z,84.39
2018-02-04T04:06:23.450Z,84.52
2018-02-04T04:07:03.973Z,84.29
2018-02-04T04:07:44.551Z,84.86
2018-02-04T04:08:25.077Z,84.48
2018-02-04T04:09:05.608Z,84.67
2018-02-04T04:09:46.164Z,84.58
2018-02-04T04:10:26.694Z,84.58
2018-02-04T04:11:07.241Z,84.29
2018-02-04T04:11:47.794Z,84.39
2018-02-04T04:12:28.321Z,84.86
2018-02-04T04:13:08.879Z,84.58
2018-02-04T04:13:49.404Z,84.91
2018-02-04T04:14:29.918Z,84.86
2018-02-04T04:15:10.477Z,84.95
2018-02-04T04:15:50.999Z,84.48
2018-02-04T04:16:31.536Z,84.95
2018-02-04T04:17:12.047Z,84.39
2018-02-04T04:17:52.653Z,84.39
2018-02-04T04:18:33.214Z,84.67
2018-02-04T04:19:13.847Z,84.24
2018-02-04T04:19:54.345Z,84.48
2018-02-04T04:20:34.882Z,84.29
2018-02-04T04:21:15.435Z,84.86
2018-02-04T04:21:55.911Z,84.29
2018-02-04T04:22:36.600Z,84.48
2018-02-04T04:23:17.112Z,84.39
2018-02-04T04:23:57.662Z,84.2
2018-02-04T04:24:38.188Z,84.29
2018-02-04T04:25:18.739Z,84.39
2018-02-04T04:25:59.292Z,84.95
2018-02-04T04:26:39.812Z,84.77
2018-02-04T04:27:20.304Z,84.58
2018-02-04T04:28:01.023Z,85.01
2018-02-04T04:28:41.575Z,85.11
2018-02-04T04:29:22.051Z,85.86
2018-02-04T04:30:02.552Z,85.49
2018-02-04T04:30:43.100Z,86.15
2018-02-04T04:31:23.595Z,86.15
2018-02-04T04:32:04.150Z,85.58
2018-02-04T04:32:44.698Z,85.58
2018-02-04T04:33:25.296Z,85.72
2018-02-04T04:34:05.844Z,85.53
2018-02-04T04:34:46.406Z,85.72
2018-02-04T04:35:26.909Z,85.62
2018-02-04T04:36:07.559Z,85.43
2018-02-04T04:36:48.130Z,85.43
2018-02-04T04:37:28.655Z,85.91
2018-02-04T04:38:09.168Z,85.39
2018-02-04T04:38:49.688Z,85.39
2018-02-04T04:39:30.228Z,85.77
2018-02-04T04:40:10.776Z,85.86
2018-02-04T04:40:51.388Z,85.86
2018-02-04T04:41:32.000Z,85.58
2018-02-04T04:42:13.197Z,85.86
2018-02-04T04:42:53.710Z,86.05
2018-02-04T04:43:34.234Z,85.86
2018-02-04T04:44:14.816Z,86.05
2018-02-04T04:44:55.320Z,86.15
2018-02-04T04:45:35.845Z,86.47
2018-02-04T04:46:16.479Z,86.1
2018-02-04T04:46:56.900Z,85.62
2018-02-04T04:47:37.449Z,85.72
2018-02-04T04:48:17.982Z,85.91
2018-02-04T04:48:58.512Z,85.81
2018-02-04T04:49:39.053Z,85.72
2018-02-04T04:50:19.612Z,85.43
2018-02-04T04:51:00.125Z,85.53
2018-02-04T04:51:40.630Z,85.49
2018-02-04T04:52:21.190Z,85.58
2018-02-04T04:53:01.697Z,86.05
2018-02-04T04:53:42.248Z,86.05
2018-02-04T04:54:22.819Z,86.05
2018-02-04T04:55:03.350Z,86.05
2018-02-04T04:55:43.838Z,85.96
2018-02-04T04:56:24.369Z,86.82
2018-02-04T04:57:04.929Z,86.91
2018-02-04T04:57:45.444Z,86.67
2018-02-04T04:58:25.982Z,86.53
2018-02-04T04:59:06.468Z,86.57
2018-02-04T04:59:47.026Z,86.29
2018-02-04T05:00:27.554Z,86.29
2018-02-04T05:01:08.169Z,85.72
2018-02-04T05:01:48.705Z,85.72
2018-02-04T05:02:29.265Z,85.77
2018-02-04T05:03:09.743Z,85.49
2018-02-04T05:03:50.281Z,86.34
2018-02-04T05:04:30.811Z,86.29
2018-02-04T05:05:11.345Z,86.05
2018-02-04T05:05:51.880Z,85.62
2018-02-04T05:06:32.441Z,86.1
2018-02-04T05:07:12.955Z,85.81
2018-02-04T05:07:53.531Z,86.19
2018-02-04T05:08:34.031Z,86.1
2018-02-04T05:09:14.595Z,86
2018-02-04T05:09:55.104Z,86.1
2018-02-04T05:10:35.684Z,85.72
2018-02-04T05:11:16.264Z,85.49
2018-02-04T05:11:56.800Z,85.68
2018-02-04T05:12:37.344Z,85.62
2018-02-04T05:13:17.902Z,85.91
2018-02-04T05:13:58.452Z,85.81
2018-02-04T05:14:38.968Z,85.72
2018-02-04T05:15:19.509Z,85.81
2018-02-04T05:16:00.090Z,85.43
2018-02-04T05:16:40.579Z,85.62
2018-02-04T05:17:21.128Z,85.24
2018-02-04T05:18:01.673Z,84.86
2018-02-04T05:18:42.205Z,85.05
2018-02-04T05:19:22.729Z,85.15
2018-02-04T05:20:03.435Z,85.53
2018-02-04T05:20:43.929Z,85.24
2018-02-04T05:21:24.482Z,85.49
2018-02-04T05:22:05.053Z,85.68
2018-02-04T05:22:45.668Z,86.15
2018-02-04T05:23:26.250Z,85.91
2018-02-04T05:24:06.767Z,85.62
2018-02-04T05:24:47.320Z,85.01
2018-02-04T05:25:27.879Z,85.53
2018-02-04T05:26:08.515Z,85.68
2018-02-04T05:26:48.968Z,84.91
2018-02-04T05:27:29.526Z,85.68
2018-02-04T05:28:10.050Z,85.68
2018-02-04T05:28:50.588Z,86.05
2018-02-04T05:29:31.152Z,86.05
2018-02-04T05:30:11.685Z,86.72
2018-02-04T05:30:52.222Z,86.82
2018-02-04T05:31:32.734Z,86.72
2018-02-04T05:32:13.264Z,86.82
2018-02-04T05:32:53.824Z,86.63
2018-02-04T05:33:34.333Z,87.29
2018-02-04T05:34:14.840Z,86.82
2018-02-04T05:34:55.371Z,86.43
2018-02-04T05:35:35.900Z,86.82
2018-02-04T05:36:16.492Z,86.72
2018-02-04T05:36:57.019Z,86.53
2018-02-04T05:37:37.593Z,86.82
2018-02-04T05:38:18.096Z,86.72
2018-02-04T05:38:58.644Z,86.63
2018-02-04T05:39:39.207Z,86.72
2018-02-04T05:40:19.767Z,86.91
2018-02-04T05:41:00.338Z,86.24
2018-02-04T05:41:40.882Z,86.43
2018-02-04T05:42:21.431Z,86.82
2018-02-04T05:43:01.955Z,86.72
2018-02-04T05:43:42.511Z,86.72
2018-02-04T05:44:23.036Z,86.82
2018-02-04T05:45:03.568Z,86.34
2018-02-04T05:45:44.171Z,86.91
2018-02-04T05:46:24.693Z,86.24
2018-02-04T05:47:05.210Z,86.34
2018-02-04T05:47:45.783Z,86.24
2018-02-04T05:48:26.285Z,86.63
2018-02-04T05:49:06.803Z,86.53
2018-02-04T05:49:47.296Z,86.63
2018-02-04T05:50:27.846Z,86.82
2018-02-04T05:51:08.366Z,86.05
2018-02-04T05:51:48.924Z,86.24
2018-02-04T05:52:29.498Z,86.34
2018-02-04T05:53:10.003Z,86.24
2018-02-04T05:53:50.545Z,85.77
2018-02-04T05:54:31.181Z,86.05
2018-02-04T05:55:11.696Z,86.05
2018-02-04T05:55:52.260Z,86.05
2018-02-04T05:56:32.809Z,86.05
2018-02-04T05:57:13.310Z,86.15
2018-02-04T05:57:53.888Z,86.15
2018-02-04T05:58:34.371Z,86.43
2018-02-04T05:59:14.923Z,86.72
2018-02-04T05:59:55.475Z,86.53
2018-02-04T06:00:36.043Z,86.53
2018-02-04T06:01:16.586Z,86.53
2018-02-04T06:01:57.139Z,86.96
2018-02-04T06:02:37.652Z,87.29
2018-02-04T06:03:18.270Z,87.1
2018-02-04T06:03:58.834Z,87.29
2018-02-04T06:04:39.420Z,86.63
2018-02-04T06:05:20.100Z,86.96
2018-02-04T06:06:00.521Z,87.82
2018-02-04T06:06:41.096Z,88.1
2018-02-04T06:07:21.588Z,88.01
2018-02-04T06:08:02.154Z,88.24
2018-02-04T06:08:42.687Z,88.24
2018-02-04T06:09:23.232Z,87.76
2018-02-04T06:10:03.759Z,87.72
2018-02-04T06:10:44.236Z,87.91
2018-02-04T06:11:24.799Z,88.01
2018-02-04T06:12:05.352Z,88.57
2018-02-04T06:12:45.938Z,88.67
2018-02-04T06:13:26.526Z,88.57
2018-02-04T06:14:07.030Z,88.57
2018-02-04T06:14:47.554Z,88.01
2018-02-04T06:15:28.093Z,87.82
2018-02-04T06:16:08.566Z,87.82
2018-02-04T06:16:49.107Z,88.1
2018-02-04T06:17:29.634Z,87.82
2018-02-04T06:18:10.192Z,88.24
2018-02-04T06:18:50.735Z,88.01
2018-02-04T06:19:31.264Z,87.82
2018-02-04T06:20:11.822Z,87.57
2018-02-04T06:20:52.368Z,87.19
2018-02-04T06:21:32.909Z,87.1
2018-02-04T06:22:13.438Z,87.38
2018-02-04T06:22:53.951Z,87.43
2018-02-04T06:23:34.484Z,87.15
2018-02-04T06:24:15.074Z,87.86
2018-02-04T06:24:55.586Z,88.24
2018-02-04T06:25:36.155Z,87.91
2018-02-04T06:26:16.705Z,88.2
2018-02-04T06:26:57.205Z,88.15
2018-02-04T06:27:37.741Z,87.34
2018-02-04T06:28:18.323Z,87.43
2018-02-04T06:28:58.838Z,88.01
2018-02-04T06:29:39.440Z,88.15
2018-02-04T06:30:19.971Z,87.76
2018-02-04T06:31:00.511Z,87.95
2018-02-04T06:31:41.030Z,87.67
2018-02-04T06:32:21.592Z,87.29
2018-02-04T06:33:02.123Z,87.19
2018-02-04T06:33:42.673Z,87.01
2018-02-04T06:34:23.142Z,87.19
2018-02-04T06:35:03.701Z,87.19
2018-02-04T06:35:44.205Z,87.19
2018-02-04T06:36:24.737Z,87.29
2018-02-04T06:37:05.297Z,86.72
2018-02-04T06:37:45.843Z,86.82
2018-02-04T06:38:26.350Z,86.72
2018-02-04T06:39:06.898Z,86.82
2018-02-04T06:39:47.469Z,86.34
2018-02-04T06:40:28.020Z,86.53
2018-02-04T06:41:08.564Z,87.1
2018-02-04T06:41:49.102Z,87.29
2018-02-04T06:42:29.619Z,87.67
2018-02-04T06:43:10.193Z,87.53
2018-02-04T06:43:50.698Z,87.91
2018-02-04T06:44:31.250Z,88.01
2018-02-04T06:45:11.834Z,88.57
2018-02-04T06:45:52.387Z,88.67
2018-02-04T06:46:32.921Z,88.43
2018-02-04T06:47:13.457Z,88.53
2018-02-04T06:47:54.011Z,88.05
2018-02-04T06:48:34.519Z,87.86
2018-02-04T06:49:15.057Z,87.38
2018-02-04T06:49:55.648Z,87.38
2018-02-04T06:50:36.220Z,87.38
2018-02-04T06:51:16.776Z,87.38
2018-02-04T06:51:57.484Z,87.19
2018-02-04T06:52:38.040Z,87.29
2018-02-04T06:53:18.528Z,87.1
2018-02-04T06:53:59.074Z,86.82
2018-02-04T06:54:39.615Z,86.43
2018-02-04T06:55:20.181Z,86.63
2018-02-04T06:56:00.695Z,87.01
2018-02-04T06:56:41.313Z,86.63
2018-02-04T06:57:21.853Z,86.72
2018-02-04T06:58:02.375Z,87.01
2018-02-04T06:58:42.946Z,86.53
2018-02-04T06:59:23.533Z,86.43
2018-02-04T07:00:04.021Z,86.82
2018-02-04T07:00:44.620Z,86.24
2018-02-04T07:01:25.166Z,86.24
2018-02-04T07:02:05.651Z,86.15
2018-02-04T07:02:46.197Z,85.86
2018-02-04T07:03:27.508Z,85.86
2018-02-04T07:04:07.356Z,85.96
2018-02-04T07:04:47.983Z,85.77
2018-02-04T07:05:28.487Z,86.24
2018-02-04T07:06:09.020Z,86.34
2018-02-04T07:06:49.568Z,86.05
2018-02-04T07:07:30.035Z,86.24
2018-02-04T07:08:10.571Z,85.49
2018-02-04T07:08:51.088Z,85.86
2018-02-04T07:09:31.639Z,86.15
2018-02-04T07:10:12.179Z,85.86
2018-02-04T07:10:52.725Z,86.91
2018-02-04T07:11:33.357Z,86.24
2018-02-04T07:12:13.875Z,86.72
2018-02-04T07:12:54.404Z,86.72
2018-02-04T07:13:34.944Z,86.72
2018-02-04T07:14:15.524Z,86.34
2018-02-04T07:14:56.087Z,86.34
2018-02-04T07:15:36.597Z,86.15
2018-02-04T07:16:17.112Z,86.24
2018-02-04T07:16:57.653Z,86.15
2018-02-04T07:17:38.245Z,86.72
2018-02-04T07:18:18.763Z,86.53
2018-02-04T07:18:59.318Z,86.72
2018-02-04T07:19:39.907Z,86.82
2018-02-04T07:20:20.452Z,86.63
2018-02-04T07:21:01.017Z,86.05
2018-02-04T07:21:41.589Z,86.43
2018-02-04T07:22:22.121Z,86.05
2018-02-04T07:23:02.678Z,85.77
2018-02-04T07:23:43.219Z,86.43
2018-02-04T07:24:23.770Z,86.05
2018-02-04T07:25:04.365Z,85.96
2018-02-04T07:25:44.880Z,85.86
2018-02-04T07:26:25.497Z,85.86
2018-02-04T07:27:06.028Z,85.77
2018-02-04T07:27:46.532Z,85.77
2018-02-04T07:28:27.045Z,85.49
2018-02-04T07:29:07.652Z,86.05
2018-02-04T07:29:48.129Z,85.58
2018-02-04T07:30:28.706Z,85.96
2018-02-04T07:31:09.229Z,85.68
2018-02-04T07:31:49.783Z,85.77
2018-02-04T07:32:30.344Z,85.96
2018-02-04T07:33:10.893Z,85.96
2018-02-04T07:33:51.418Z,85.96
2018-02-04T07:34:32.026Z,86.15
2018-02-04T07:35:12.518Z,85.68
2018-02-04T07:35:53.039Z,86.24
2018-02-04T07:36:33.611Z,86.24
2018-02-04T07:37:14.213Z,86.53
2018-02-04T07:37:54.786Z,86.05
2018-02-04T07:38:35.279Z,86.15
2018-02-04T07:39:15.797Z,86.24
2018-02-04T07:39:56.361Z,86.24
2018-02-04T07:40:36.933Z,86.24
2018-02-04T07:41:17.526Z,86.15
2018-02-04T07:41:58.088Z,85.77
2018-02-04T07:42:38.653Z,85.39
2018-02-04T07:43:19.181Z,85.58
2018-02-04T07:43:59.802Z,85.49
2018-02-04T07:44:40.293Z,86.15
2018-02-04T07:45:20.816Z,86.82
2018-02-04T07:46:02.886Z,86.63
2018-02-04T07:46:43.431Z,86.72
2018-02-04T07:47:24.097Z,86.68
2018-02-04T07:48:05.345Z,86.77
2018-02-04T07:48:45.865Z,87.34
2018-02-04T07:49:26.406Z,87.38
2018-02-04T07:50:06.923Z,87.05
2018-02-04T07:50:47.454Z,87.29
2018-02-04T07:51:27.971Z,87.19
2018-02-04T07:52:08.510Z,87.19
2018-02-04T07:52:49.055Z,87.29
2018-02-04T07:53:29.576Z,87.29
2018-02-04T07:54:10.192Z,87.38
2018-02-04T07:54:50.698Z,87.01
2018-02-04T07:55:31.488Z,86.63
2018-02-04T07:56:11.925Z,86.63
2018-02-04T07:56:52.552Z,86.91
2018-02-04T07:57:33.080Z,86.19
2018-02-04T07:58:13.749Z,85.68
2018-02-04T07:58:54.203Z,86.05
2018-02-04T07:59:34.940Z,85.86
2018-02-04T08:00:15.515Z,85.91
2018-02-04T08:00:56.080Z,85.81
2018-02-04T08:01:36.685Z,85.72
2018-02-04T08:02:17.212Z,85.15
2018-02-04T08:02:57.767Z,85.11
2018-02-04T08:03:38.386Z,86.05
2018-02-04T08:04:21.847Z,85.49
2018-02-04T08:06:10.093Z,86.24
2018-02-04T08:06:50.621Z,86.34
2018-02-04T08:07:31.181Z,85.39
2018-02-04T08:08:11.695Z,85.39
2018-02-04T08:08:52.162Z,85.68
2018-02-04T08:09:32.907Z,85.77
2018-02-04T08:10:13.382Z,85.34
2018-02-04T08:10:53.991Z,85.72
2018-02-04T08:11:34.706Z,85.34
2018-02-04T08:12:15.424Z,85.53
2018-02-04T08:12:55.987Z,86
2018-02-04T08:13:38.278Z,85.53
2018-02-04T08:14:20.328Z,85.53
2018-02-04T08:15:00.959Z,84.86
2018-02-04T08:15:41.453Z,84.67
2018-02-04T08:16:22.023Z,84.29
2018-02-04T08:17:02.791Z,84.1
2018-02-04T08:17:43.347Z,84.48
2018-02-04T08:18:23.913Z,84.48
2018-02-04T08:19:04.440Z,84.39
2018-02-04T08:19:44.932Z,83.72
2018-02-04T08:20:25.501Z,83.82
2018-02-04T08:21:06.085Z,83.44
2018-02-04T08:21:46.585Z,83.82
2018-02-04T08:22:31.655Z,83.15
2018-02-04T08:23:08.215Z,83.15
2018-02-04T08:23:48.804Z,83.78
2018-02-04T08:24:29.326Z,84.63
2018-02-04T08:25:09.797Z,85.11
2018-02-04T08:25:50.387Z,85.01
2018-02-04T08:26:30.874Z,85.15
2018-02-04T08:27:11.641Z,85.01
2018-02-04T08:27:52.289Z,85.01
2018-02-04T08:28:32.783Z,85.05
2018-02-04T08:29:13.393Z,84.77
2018-02-04T08:29:53.942Z,85.11
2018-02-04T08:30:34.716Z,84.72
2018-02-04T08:31:15.328Z,85.49
2018-02-04T08:31:56.304Z,86
2018-02-04T08:32:36.977Z,85.81
2018-02-04T08:33:17.485Z,85.43
2018-02-04T08:33:59.970Z,85.53
2018-02-04T08:34:40.336Z,85.72
2018-02-04T08:35:21.003Z,85.15
2018-02-04T08:36:01.679Z,85.15
2018-02-04T08:36:42.261Z,84.34
2018-02-04T08:37:22.882Z,84.95
2018-02-04T08:38:03.522Z,84.67
2018-02-04T08:38:44.087Z,84.91
2018-02-04T08:39:24.634Z,85.01
2018-02-04T08:40:05.667Z,85.3
2018-02-04T08:40:46.124Z,85.62
2018-02-04T08:41:26.655Z,85.53
2018-02-04T08:42:07.425Z,85.15
2018-02-04T08:42:47.870Z,85.15
2018-02-04T08:43:28.420Z,85.43
2018-02-04T08:44:09.031Z,85.43
2018-02-04T08:44:49.592Z,85.53